Lathrop, California
Current Conditions -  °F | °C
As of 10:55 PM on Tuesday 21 Oct 2014 (Local Time) from KSCK Reporting Station
Clear Clear  
Wind Chill: 59°   Ceiling: Unl
Heat Index: 59°   Visibility: 10mi
Dew Point: 48°   Wind: 5mph
Humidity: 67%   Direction: 290°WNW
Pressure: 30.02"   Gusts: NA
Location:  37.8°N, 121.3°W
Report Text: KSCK 220555Z AUTO 29004KT 10SM CLR 15/09 A3002 RMK AO2 SLP164 T01500089 10222 20150 50005
Loading
Personal Weather Stations






























Interactive Weather Map
Tropical Storm Tracking
New forecast layout! Learn more

10-Day Weather Forecast

Advertisements
Track Severe Weather on mobile